createdAt,value
2023-03-03T00:01:12.416Z,-62
2023-03-03T00:08:44.775Z,-62
2023-03-03T00:16:17.171Z,-62
2023-03-03T00:23:49.505Z,-62
2023-03-03T00:31:21.849Z,-62
2023-03-03T00:38:54.169Z,-62
2023-03-03T00:46:26.583Z,-62
2023-03-03T00:53:59.019Z,-62
2023-03-03T01:01:31.416Z,-62
2023-03-03T01:09:03.784Z,-62
2023-03-03T01:16:36.107Z,-62
2023-03-03T01:24:08.432Z,-62
2023-03-03T01:31:40.799Z,-62
2023-03-03T01:39:13.163Z,-64
2023-03-03T01:46:45.509Z,-62
2023-03-03T01:54:17.848Z,-60
2023-03-03T02:01:50.201Z,-61
2023-03-03T02:09:22.690Z,-61
2023-03-03T02:16:55.055Z,-61
2023-03-03T02:24:27.415Z,-61
2023-03-03T02:31:59.863Z,-62
2023-03-03T02:39:32.260Z,-61
2023-03-03T02:47:04.607Z,-62
2023-03-03T02:54:36.965Z,-61
2023-03-03T03:02:09.343Z,-61
2023-03-03T03:09:41.653Z,-61
2023-03-03T03:17:14.425Z,-61
2023-03-03T03:24:46.754Z,-61
2023-03-03T03:32:19.092Z,-61
2023-03-03T03:39:51.426Z,-61
2023-03-03T03:47:23.754Z,-61
2023-03-03T03:54:56.084Z,-62
2023-03-03T04:02:28.487Z,-61
2023-03-03T04:10:00.949Z,-61
2023-03-03T04:17:33.278Z,-61
2023-03-03T04:25:05.687Z,-61
2023-03-03T04:32:38.016Z,-61
2023-03-03T04:40:10.338Z,-61
2023-03-03T04:47:42.687Z,-61
2023-03-03T04:55:15.028Z,-61
2023-03-03T05:02:47.355Z,-61
2023-03-03T05:10:19.692Z,-61
2023-03-03T05:17:52.002Z,-61
2023-03-03T05:25:24.353Z,-61
2023-03-03T05:32:56.724Z,-62
2023-03-03T05:40:29.050Z,-61
2023-03-03T05:48:01.806Z,-61
2023-03-03T05:55:04.121Z,-62
2023-03-03T05:55:51.438Z,-61
2023-03-03T05:56:38.772Z,-61
2023-03-03T05:57:26.143Z,-61
2023-03-03T05:58:13.461Z,-62
2023-03-03T05:59:00.767Z,-62
2023-03-03T05:59:48.102Z,-61
2023-03-03T06:00:35.424Z,-61
2023-03-03T06:01:22.742Z,-61
2023-03-03T06:02:10.084Z,-62
2023-03-03T06:02:57.432Z,-62
2023-03-03T06:03:44.759Z,-62
2023-03-03T06:04:32.054Z,-61
2023-03-03T06:05:19.404Z,-62
2023-03-03T06:06:06.761Z,-61
2023-03-03T06:06:54.072Z,-62
2023-03-03T06:07:41.386Z,-61
2023-03-03T06:08:28.720Z,-62
2023-03-03T06:09:16.053Z,-62
2023-03-03T06:10:03.369Z,-61
2023-03-03T06:17:35.674Z,-61
2023-03-03T06:25:07.984Z,-62
2023-03-03T06:32:40.329Z,-61
2023-03-03T06:40:12.685Z,-61
2023-03-03T06:47:45.035Z,-61
2023-03-03T06:55:17.339Z,-60
2023-03-03T07:02:49.657Z,-59
2023-03-03T07:04:22.013Z,-59
2023-03-03T07:05:09.436Z,-62
2023-03-03T07:05:56.816Z,-60
2023-03-03T07:06:44.246Z,-60
2023-03-03T07:07:31.578Z,-61
2023-03-03T07:08:18.925Z,-60
2023-03-03T07:09:06.282Z,-63
2023-03-03T07:09:53.585Z,-63
2023-03-03T07:10:40.888Z,-62
2023-03-03T07:11:28.228Z,-60
2023-03-03T07:12:15.559Z,-59
2023-03-03T07:13:02.873Z,-62
2023-03-03T07:13:50.181Z,-61
2023-03-03T07:14:37.482Z,-60
2023-03-03T07:15:24.788Z,-60
2023-03-03T07:16:12.236Z,-62
2023-03-03T07:16:59.682Z,-60
2023-03-03T07:17:48.443Z,-60
2023-03-03T07:18:36.253Z,-61
2023-03-03T07:19:23.769Z,-63
2023-03-03T07:20:11.118Z,-62
2023-03-03T07:20:58.427Z,-62
2023-03-03T07:21:45.872Z,-62
2023-03-03T07:22:33.192Z,-62
2023-03-03T07:23:20.538Z,-62
2023-03-03T07:24:07.943Z,-65
2023-03-03T07:24:55.284Z,-65
2023-03-03T07:25:42.626Z,-62
2023-03-03T07:26:30.021Z,-64
2023-03-03T07:27:17.353Z,-62
2023-03-03T07:28:04.688Z,-66
2023-03-03T07:28:52.573Z,-62
2023-03-03T07:29:40.090Z,-61
2023-03-03T07:30:27.797Z,-62
2023-03-03T07:31:15.344Z,-62
2023-03-03T07:32:02.753Z,-62
2023-03-03T07:32:50.149Z,-62
2023-03-03T07:33:37.522Z,-62
2023-03-03T07:34:24.867Z,-62
2023-03-03T07:35:12.202Z,-66
2023-03-03T07:35:59.563Z,-63
2023-03-03T07:36:46.924Z,-62
2023-03-03T07:37:34.252Z,-62
2023-03-03T07:38:21.568Z,-62
2023-03-03T07:39:09.113Z,-62
2023-03-03T07:39:56.492Z,-62
2023-03-03T07:40:43.816Z,-62
2023-03-03T07:41:31.203Z,-62
2023-03-03T07:42:18.554Z,-62
2023-03-03T07:43:05.909Z,-63
2023-03-03T07:43:53.266Z,-62
2023-03-03T07:44:40.593Z,-62
2023-03-03T07:45:27.938Z,-62
2023-03-03T07:46:15.502Z,-62
2023-03-03T07:47:02.856Z,-62
2023-03-03T07:47:50.170Z,-61
2023-03-03T07:48:37.611Z,-62
2023-03-03T07:49:25.019Z,-63
2023-03-03T07:50:12.336Z,-63
2023-03-03T07:50:59.809Z,-62
2023-03-03T07:51:47.125Z,-62
2023-03-03T07:52:34.434Z,-62
2023-03-03T07:53:21.938Z,-61
2023-03-03T07:54:09.268Z,-62
2023-03-03T07:54:56.582Z,-61
2023-03-03T07:55:44.022Z,-62
2023-03-03T07:56:31.367Z,-59
2023-03-03T07:57:19.068Z,-61
2023-03-03T07:58:06.409Z,-61
2023-03-03T07:58:53.809Z,-63
2023-03-03T07:59:41.131Z,-64
2023-03-03T08:00:28.635Z,-62
2023-03-03T08:01:16.013Z,-63
2023-03-03T08:02:03.368Z,-62
2023-03-03T08:02:50.675Z,-62
2023-03-03T08:03:38.466Z,-63
2023-03-03T08:04:25.874Z,-62
2023-03-03T08:05:13.349Z,-61
2023-03-03T08:06:00.704Z,-60
2023-03-03T08:06:48.037Z,-61
2023-03-03T08:07:35.909Z,-62
2023-03-03T08:08:23.344Z,-62
2023-03-03T08:09:10.667Z,-62
2023-03-03T08:09:58.606Z,-61
2023-03-03T08:10:45.985Z,-62
2023-03-03T08:11:33.345Z,-62
2023-03-03T08:12:20.667Z,-62
2023-03-03T08:13:08.010Z,-62
2023-03-03T08:13:55.389Z,-60
2023-03-03T08:14:42.726Z,-62
2023-03-03T08:15:30.124Z,-63
2023-03-03T08:16:17.619Z,-64
2023-03-03T08:17:04.964Z,-62
2023-03-03T08:17:52.292Z,-61
2023-03-03T08:18:40.017Z,-61
2023-03-03T08:19:27.426Z,-60
2023-03-03T08:20:14.778Z,-62
2023-03-03T08:21:02.130Z,-62
2023-03-03T08:21:49.470Z,-61
2023-03-03T08:22:36.811Z,-63
2023-03-03T08:23:24.136Z,-62
2023-03-03T08:24:11.457Z,-61
2023-03-03T08:24:58.776Z,-62
2023-03-03T08:25:46.106Z,-62
2023-03-03T08:26:33.926Z,-63
2023-03-03T08:27:21.244Z,-63
2023-03-03T08:28:08.570Z,-64
2023-03-03T08:28:55.890Z,-65
2023-03-03T08:29:43.256Z,-66
2023-03-03T08:30:30.637Z,-65
2023-03-03T08:31:31.141Z,-65
2023-03-03T08:32:15.901Z,-65
2023-03-03T08:33:03.302Z,-64
2023-03-03T08:33:50.620Z,-64
2023-03-03T08:34:38.751Z,-61
2023-03-03T08:35:26.112Z,-62
2023-03-03T08:36:13.465Z,-62
2023-03-03T08:37:00.808Z,-63
2023-03-03T08:37:48.146Z,-62
2023-03-03T08:38:35.541Z,-61
2023-03-03T08:39:22.869Z,-62
2023-03-03T08:40:10.174Z,-62
2023-03-03T08:40:57.620Z,-62
2023-03-03T08:41:44.936Z,-63
2023-03-03T08:42:32.280Z,-63
2023-03-03T08:43:19.901Z,-62
2023-03-03T08:44:07.224Z,-61
2023-03-03T08:44:54.585Z,-62
2023-03-03T08:45:41.989Z,-62
2023-03-03T08:46:29.332Z,-62
2023-03-03T08:47:16.697Z,-62
2023-03-03T08:48:06.004Z,-62
2023-03-03T08:48:53.576Z,-65
2023-03-03T08:49:41.173Z,-64
2023-03-03T08:50:28.783Z,-63
2023-03-03T08:51:16.124Z,-66
2023-03-03T08:52:03.481Z,-65
2023-03-03T08:52:50.818Z,-65
2023-03-03T08:53:38.246Z,-64
2023-03-03T08:54:25.594Z,-66
2023-03-03T08:55:13.432Z,-66
2023-03-03T08:56:00.763Z,-66
2023-03-03T08:56:48.229Z,-66
2023-03-03T08:57:35.593Z,-67
2023-03-03T08:58:30.607Z,-67
2023-03-03T08:59:20.206Z,-68
2023-03-03T09:00:07.634Z,-68
2023-03-03T09:00:54.978Z,-66
2023-03-03T09:01:42.329Z,-63
2023-03-03T09:02:29.708Z,-66
2023-03-03T09:03:17.041Z,-64
2023-03-03T09:04:04.390Z,-64
2023-03-03T09:04:51.897Z,-67
2023-03-03T09:05:39.262Z,-64
2023-03-03T09:06:26.605Z,-65
2023-03-03T09:07:13.979Z,-61
2023-03-03T09:08:01.323Z,-66
2023-03-03T09:08:48.631Z,-64
2023-03-03T09:09:36.179Z,-66
2023-03-03T09:10:23.524Z,-64
2023-03-03T09:11:10.850Z,-65
2023-03-03T09:11:58.280Z,-66
2023-03-03T09:12:45.610Z,-67
2023-03-03T09:13:32.932Z,-65
2023-03-03T09:14:20.386Z,-67
2023-03-03T09:15:07.722Z,-66
2023-03-03T09:15:55.105Z,-67
2023-03-03T09:16:42.519Z,-68
2023-03-03T09:17:29.828Z,-67
2023-03-03T09:18:17.151Z,-65
2023-03-03T09:19:05.022Z,-64
2023-03-03T09:19:52.577Z,-69
2023-03-03T09:20:39.961Z,-64
2023-03-03T09:21:27.276Z,-67
2023-03-03T09:22:14.715Z,-63
2023-03-03T09:23:02.069Z,-66
2023-03-03T09:23:49.398Z,-68
2023-03-03T09:24:36.795Z,-66
2023-03-03T09:25:24.136Z,-62
2023-03-03T09:26:11.464Z,-68
2023-03-03T09:26:58.952Z,-67
2023-03-03T09:27:46.411Z,-67
2023-03-03T09:28:33.747Z,-67
2023-03-03T09:29:21.199Z,-67
2023-03-03T09:30:08.577Z,-68
2023-03-03T09:30:55.916Z,-69
2023-03-03T09:31:43.481Z,-67
2023-03-03T09:32:30.966Z,-68
2023-03-03T09:33:18.422Z,-66
2023-03-03T09:34:05.759Z,-67
2023-03-03T09:34:53.108Z,-65
2023-03-03T09:35:40.527Z,-64
2023-03-03T09:36:27.918Z,-64
2023-03-03T09:37:15.603Z,-67
2023-03-03T09:38:03.013Z,-67
2023-03-03T09:38:50.374Z,-67
2023-03-03T09:39:37.835Z,-68
2023-03-03T09:40:25.199Z,-66
2023-03-03T09:41:12.566Z,-65
2023-03-03T09:41:59.915Z,-67
2023-03-03T09:42:47.282Z,-69
2023-03-03T09:43:34.637Z,-64
2023-03-03T09:44:21.978Z,-68
2023-03-03T09:45:09.298Z,-65
2023-03-03T09:45:56.764Z,-64
2023-03-03T09:46:44.224Z,-64
2023-03-03T09:47:31.589Z,-64
2023-03-03T09:48:18.991Z,-64
2023-03-03T09:49:06.301Z,-64
2023-03-03T09:49:53.642Z,-65
2023-03-03T09:50:41.235Z,-64
2023-03-03T09:51:28.629Z,-66
2023-03-03T09:52:15.987Z,-65
2023-03-03T09:53:03.372Z,-67
2023-03-03T09:53:50.730Z,-65
2023-03-03T09:54:38.183Z,-64
2023-03-03T09:55:25.681Z,-63
2023-03-03T09:56:13.005Z,-63
2023-03-03T09:57:00.354Z,-62
2023-03-03T09:57:48.474Z,-64
2023-03-03T09:58:39.489Z,-64
2023-03-03T09:59:26.801Z,-65
2023-03-03T10:00:14.121Z,-65
2023-03-03T10:01:01.451Z,-66
2023-03-03T10:01:48.862Z,-67
2023-03-03T10:02:36.254Z,-66
2023-03-03T10:03:23.651Z,-68
2023-03-03T10:04:11.057Z,-64
2023-03-03T10:04:58.457Z,-65
2023-03-03T10:05:45.782Z,-63
2023-03-03T10:06:33.223Z,-69
2023-03-03T10:07:20.551Z,-69
2023-03-03T10:08:07.890Z,-69
2023-03-03T10:08:55.291Z,-69
2023-03-03T10:09:42.630Z,-64
2023-03-03T10:10:29.989Z,-69
2023-03-03T10:11:17.616Z,-67
2023-03-03T10:12:04.963Z,-63
2023-03-03T10:12:52.288Z,-66
2023-03-03T10:13:39.708Z,-67
2023-03-03T10:14:27.065Z,-64
2023-03-03T10:15:14.402Z,-64
2023-03-03T10:16:01.852Z,-69
2023-03-03T10:16:49.805Z,-64
2023-03-03T10:17:37.225Z,-64
2023-03-03T10:18:24.640Z,-66
2023-03-03T10:19:11.976Z,-69
2023-03-03T10:19:59.396Z,-66
2023-03-03T10:20:51.325Z,-67
2023-03-03T10:21:39.682Z,-68
2023-03-03T10:22:27.093Z,-66
2023-03-03T10:23:14.408Z,-65
2023-03-03T10:24:01.759Z,-68
2023-03-03T10:24:49.564Z,-64
2023-03-03T10:25:37.196Z,-66
2023-03-03T10:26:34.851Z,-64
2023-03-03T10:27:21.798Z,-68
2023-03-03T10:28:09.279Z,-66
2023-03-03T10:28:56.600Z,-69
2023-03-03T10:29:43.924Z,-64
2023-03-03T10:30:41.263Z,-66
2023-03-03T10:31:29.173Z,-63
2023-03-03T10:32:16.770Z,-62
2023-03-03T10:33:04.304Z,-63
2023-03-03T10:33:51.840Z,-66
2023-03-03T10:34:39.230Z,-66
2023-03-03T10:35:26.678Z,-68
2023-03-03T10:36:14.085Z,-66
2023-03-03T10:37:01.436Z,-66
2023-03-03T10:37:48.894Z,-67
2023-03-03T10:38:36.268Z,-66
2023-03-03T10:39:23.582Z,-67
2023-03-03T10:40:11.023Z,-66
2023-03-03T10:40:58.392Z,-66
2023-03-03T10:41:45.730Z,-65
2023-03-03T10:42:33.135Z,-65
2023-03-03T10:43:31.201Z,-64
2023-03-03T10:44:17.770Z,-65
2023-03-03T10:45:05.213Z,-65
2023-03-03T10:45:52.831Z,-64
2023-03-03T10:46:40.150Z,-65
2023-03-03T10:47:27.575Z,-65
2023-03-03T10:48:14.910Z,-65
2023-03-03T10:49:02.364Z,-65
2023-03-03T10:49:49.765Z,-64
2023-03-03T10:50:37.074Z,-65
2023-03-03T10:51:24.428Z,-65
2023-03-03T10:52:11.822Z,-65
2023-03-03T10:52:59.138Z,-66
2023-03-03T10:53:46.493Z,-66
2023-03-03T10:54:33.929Z,-66
2023-03-03T10:55:21.255Z,-66
2023-03-03T10:56:08.588Z,-67
2023-03-03T10:56:56.007Z,-66
2023-03-03T10:57:43.386Z,-66
2023-03-03T10:58:30.734Z,-63
2023-03-03T10:59:18.141Z,-62
2023-03-03T11:00:05.485Z,-63
2023-03-03T11:00:52.979Z,-63
2023-03-03T11:01:40.473Z,-64
2023-03-03T11:02:27.966Z,-64
2023-03-03T11:03:15.712Z,-65
2023-03-03T11:04:03.400Z,-67
2023-03-03T11:04:50.781Z,-65
2023-03-03T11:05:38.105Z,-70
2023-03-03T11:06:25.454Z,-66
2023-03-03T11:07:12.823Z,-69
2023-03-03T11:08:00.156Z,-66
2023-03-03T11:08:47.514Z,-66
2023-03-03T11:09:34.898Z,-67
2023-03-03T11:10:22.282Z,-66
2023-03-03T11:11:09.609Z,-66
2023-03-03T11:11:57.658Z,-67
2023-03-03T11:12:45.044Z,-66
2023-03-03T11:13:32.563Z,-68
2023-03-03T11:14:19.964Z,-66
2023-03-03T11:15:07.343Z,-67
2023-03-03T11:15:54.673Z,-67
2023-03-03T11:16:41.993Z,-66
2023-03-03T11:17:29.428Z,-69
2023-03-03T11:18:16.746Z,-66
2023-03-03T11:19:04.083Z,-65
2023-03-03T11:19:51.515Z,-66
2023-03-03T11:27:23.819Z,-66
2023-03-03T11:34:56.135Z,-67
2023-03-03T11:42:28.463Z,-66
2023-03-03T11:50:00.776Z,-67
2023-03-03T11:57:33.110Z,-65
2023-03-03T12:00:05.394Z,-67
2023-03-03T12:00:52.719Z,-65
2023-03-03T12:01:40.145Z,-67
2023-03-03T12:02:27.522Z,-67
2023-03-03T12:03:14.873Z,-68
2023-03-03T12:04:02.244Z,-66
2023-03-03T12:04:49.589Z,-66
2023-03-03T12:05:37.606Z,-68
2023-03-03T12:06:25.017Z,-67
2023-03-03T12:07:18.951Z,-67
2023-03-03T12:08:06.950Z,-68
2023-03-03T12:08:54.373Z,-67
2023-03-03T12:09:41.695Z,-69
2023-03-03T12:10:29.018Z,-68
2023-03-03T12:11:16.426Z,-67
2023-03-03T12:12:03.794Z,-67
2023-03-03T12:12:53.200Z,-66
2023-03-03T12:13:40.779Z,-68
2023-03-03T12:14:28.090Z,-66
2023-03-03T12:15:15.454Z,-68
2023-03-03T12:16:03.083Z,-67
2023-03-03T12:16:50.497Z,-68
2023-03-03T12:17:37.926Z,-65
2023-03-03T12:18:25.301Z,-64
2023-03-03T12:19:12.669Z,-66
2023-03-03T12:20:00.527Z,-64
2023-03-03T12:20:47.975Z,-68
2023-03-03T12:21:35.294Z,-67
2023-03-03T12:22:22.675Z,-66
2023-03-03T12:23:10.304Z,-65
2023-03-03T12:23:57.649Z,-68
2023-03-03T12:24:44.987Z,-67
2023-03-03T12:25:32.346Z,-67
2023-03-03T12:26:19.684Z,-68
2023-03-03T12:27:06.993Z,-67
2023-03-03T12:27:54.327Z,-66
2023-03-03T12:28:41.658Z,-67
2023-03-03T12:29:28.966Z,-67
2023-03-03T12:30:16.349Z,-66
2023-03-03T12:31:03.828Z,-67
2023-03-03T12:31:51.338Z,-66
2023-03-03T12:32:38.672Z,-66
2023-03-03T12:33:26.021Z,-66
2023-03-03T12:34:13.349Z,-64
2023-03-03T12:35:00.702Z,-65
2023-03-03T12:35:50.599Z,-65
2023-03-03T12:36:38.132Z,-65
2023-03-03T12:37:25.540Z,-65
2023-03-03T12:38:12.908Z,-64
2023-03-03T12:39:00.224Z,-65
2023-03-03T12:39:47.686Z,-65
2023-03-03T12:40:35.019Z,-64
2023-03-03T12:41:22.346Z,-66
2023-03-03T12:42:09.761Z,-65
2023-03-03T12:42:57.157Z,-68
2023-03-03T12:43:44.491Z,-67
2023-03-03T12:44:31.877Z,-66
2023-03-03T12:45:19.200Z,-67
2023-03-03T12:46:06.527Z,-65
2023-03-03T12:46:53.966Z,-66
2023-03-03T12:47:41.346Z,-63
2023-03-03T12:48:28.685Z,-58
2023-03-03T12:49:16.086Z,-63
2023-03-03T12:50:07.794Z,-62
2023-03-03T12:50:55.715Z,-63
2023-03-03T12:51:43.152Z,-63
2023-03-03T12:52:30.498Z,-62
2023-03-03T12:53:17.832Z,-60
2023-03-03T12:54:05.265Z,-61
2023-03-03T12:54:52.587Z,-63
2023-03-03T12:55:39.935Z,-62
2023-03-03T12:56:27.304Z,-60
2023-03-03T12:57:14.649Z,-57
2023-03-03T12:58:02.012Z,-60
2023-03-03T12:58:49.441Z,-59
2023-03-03T12:59:36.781Z,-60
2023-03-03T13:00:24.305Z,-61
2023-03-03T13:01:11.775Z,-64
2023-03-03T13:01:59.117Z,-65
2023-03-03T13:02:46.533Z,-60
2023-03-03T13:03:35.730Z,-64
2023-03-03T13:04:26.393Z,-61
2023-03-03T13:05:13.828Z,-62
2023-03-03T13:06:01.152Z,-64
2023-03-03T13:06:48.469Z,-64
2023-03-03T13:07:35.970Z,-63
2023-03-03T13:08:23.356Z,-62
2023-03-03T13:09:10.670Z,-63
2023-03-03T13:09:58.102Z,-63
2023-03-03T13:10:45.505Z,-65
2023-03-03T13:11:32.821Z,-64
2023-03-03T13:12:20.290Z,-65
2023-03-03T13:13:07.627Z,-63
2023-03-03T13:20:40.001Z,-62
2023-03-03T13:28:12.345Z,-62
2023-03-03T13:35:44.677Z,-62
2023-03-03T13:43:17.018Z,-63
2023-03-03T13:50:49.351Z,-64
2023-03-03T13:58:21.677Z,-62
2023-03-03T14:05:54.048Z,-63
2023-03-03T14:13:26.368Z,-61
2023-03-03T14:20:58.706Z,-61
2023-03-03T14:28:31.045Z,-61
2023-03-03T14:36:03.464Z,-61
2023-03-03T14:43:35.828Z,-61
2023-03-03T14:51:08.149Z,-61
2023-03-03T14:58:40.500Z,-63
2023-03-03T15:06:12.826Z,-63
2023-03-03T15:13:45.235Z,-63
2023-03-03T15:21:18.040Z,-62
2023-03-03T15:28:50.404Z,-63
2023-03-03T15:36:22.769Z,-62
2023-03-03T15:43:05.073Z,-61
2023-03-03T15:43:52.423Z,-61
2023-03-03T15:44:39.753Z,-61
2023-03-03T15:45:27.080Z,-62
2023-03-03T15:46:14.397Z,-62
2023-03-03T15:47:01.769Z,-61
2023-03-03T15:47:49.084Z,-62
2023-03-03T15:48:36.404Z,-61
2023-03-03T15:49:23.711Z,-62
2023-03-03T15:50:11.038Z,-62
2023-03-03T15:55:28.710Z,-61
2023-03-03T15:56:16.044Z,-61
2023-03-03T15:57:03.365Z,-62
2023-03-03T15:57:50.738Z,-61
2023-03-03T15:58:38.054Z,-61
2023-03-03T15:59:25.383Z,-63
2023-03-03T16:00:12.695Z,-61
2023-03-03T16:01:00.055Z,-61
2023-03-03T16:01:47.460Z,-61
2023-03-03T16:02:34.853Z,-61
2023-03-03T16:03:22.244Z,-61
2023-03-03T16:04:09.589Z,-63
2023-03-03T16:04:56.915Z,-63
2023-03-03T16:05:44.261Z,-61
2023-03-03T16:06:31.586Z,-61
2023-03-03T16:07:18.929Z,-61
2023-03-03T16:08:06.261Z,-62
2023-03-03T16:08:53.575Z,-61
2023-03-03T16:09:40.880Z,-61
2023-03-03T16:10:28.188Z,-63
2023-03-03T16:11:15.517Z,-61
2023-03-03T16:12:02.837Z,-61
2023-03-03T16:12:50.157Z,-62
2023-03-03T16:13:38.350Z,-61
2023-03-03T16:21:11.594Z,-62
2023-03-03T16:28:43.879Z,-61
2023-03-03T16:36:16.204Z,-61
2023-03-03T16:43:48.547Z,-61
2023-03-03T16:51:20.958Z,-62
2023-03-03T16:58:53.330Z,-61
2023-03-03T17:06:25.690Z,-62
2023-03-03T17:13:57.995Z,-63
2023-03-03T17:21:30.326Z,-62
2023-03-03T17:29:02.766Z,-62
2023-03-03T17:36:35.070Z,-63
2023-03-03T17:44:07.433Z,-62
2023-03-03T17:51:39.745Z,-62
2023-03-03T17:59:12.132Z,-63
2023-03-03T18:06:44.457Z,-64
2023-03-03T18:14:16.831Z,-62
2023-03-03T18:21:49.144Z,-62
2023-03-03T18:29:21.531Z,-63
2023-03-03T18:36:53.914Z,-61
2023-03-03T18:44:26.244Z,-61
2023-03-03T18:51:58.568Z,-61
2023-03-03T18:59:30.922Z,-61
2023-03-03T19:07:03.259Z,-63
2023-03-03T19:14:35.562Z,-61
2023-03-03T19:22:07.911Z,-61
2023-03-03T19:29:40.284Z,-62
2023-03-03T19:37:12.615Z,-62
2023-03-03T19:44:44.983Z,-63
2023-03-03T19:52:17.295Z,-62
2023-03-03T19:59:49.643Z,-65
2023-03-03T20:07:21.968Z,-63
2023-03-03T20:14:54.282Z,-62
2023-03-03T20:22:26.658Z,-63
2023-03-03T20:29:58.979Z,-62
2023-03-03T20:37:31.319Z,-61
2023-03-03T20:45:03.666Z,-61
2023-03-03T20:52:36.018Z,-61
2023-03-03T21:00:08.342Z,-61
2023-03-03T21:07:40.656Z,-62
2023-03-03T21:15:12.967Z,-64
2023-03-03T21:22:45.265Z,-63
2023-03-03T21:30:17.626Z,-62
2023-03-03T21:37:49.975Z,-62
2023-03-03T21:45:22.328Z,-61
2023-03-03T21:52:54.635Z,-64
2023-03-03T22:00:26.987Z,-62
2023-03-03T22:07:59.305Z,-61
2023-03-03T22:15:31.714Z,-61
2023-03-03T22:23:04.107Z,-62
2023-03-03T22:30:36.416Z,-62
2023-03-03T22:38:08.763Z,-61
2023-03-03T22:45:41.113Z,-61
2023-03-03T22:53:13.457Z,-62
2023-03-03T23:00:45.764Z,-62
2023-03-03T23:08:18.057Z,-63
2023-03-03T23:15:50.392Z,-61
2023-03-03T23:23:22.745Z,-62
2023-03-03T23:30:55.134Z,-63
2023-03-03T23:38:27.466Z,-62
2023-03-03T23:45:59.785Z,-62
2023-03-03T23:53:32.108Z,-61
